createdAt,value
2023-03-20T00:01:24.427Z,101023.58
2023-03-20T00:03:52.727Z,101025.67
2023-03-20T00:06:25.528Z,101023.63
2023-03-20T00:08:54.233Z,101020.91
2023-03-20T00:11:26.740Z,101024.02
2023-03-20T00:13:58.451Z,101021.08
2023-03-20T00:16:28.277Z,101023.92
2023-03-20T00:18:56.903Z,101022.58
2023-03-20T00:21:31.073Z,101016.83
2023-03-20T00:24:00.985Z,101014.02
2023-03-20T00:26:46.878Z,101011.70
2023-03-20T00:29:25.239Z,101010.23
2023-03-20T00:31:54.229Z,101008.68
2023-03-20T00:34:24.166Z,101005.58
2023-03-20T00:36:52.439Z,101005.46
2023-03-20T00:39:20.948Z,101000.13
2023-03-20T00:41:50.827Z,100994.60
2023-03-20T00:44:20.136Z,100998.33
2023-03-20T00:46:55.123Z,100996.98
2023-03-20T00:49:26.478Z,100995.89
2023-03-20T00:52:01.624Z,100993.55
2023-03-20T00:54:33.120Z,100990.95
2023-03-20T00:57:02.465Z,100987.17
2023-03-20T00:59:36.576Z,100988.40
2023-03-20T01:02:04.920Z,100990.77
2023-03-20T01:04:40.984Z,100990.98
2023-03-20T01:07:13.202Z,100994.95
2023-03-20T01:09:42.653Z,100993.23
2023-03-20T01:12:11.240Z,100991.66
2023-03-20T01:14:40.854Z,100988.02
2023-03-20T01:17:17.598Z,100985.27
2023-03-20T01:19:45.968Z,100981.04
2023-03-20T01:22:14.720Z,100980.48
2023-03-20T01:24:42.972Z,100980.13
2023-03-20T01:27:18.171Z,100979.44
2023-03-20T01:29:47.001Z,100980.66
2023-03-20T01:32:16.255Z,100975.35
2023-03-20T01:34:47.946Z,100977.41
2023-03-20T01:37:23.996Z,100975.61
2023-03-20T01:39:53.791Z,100979.02
2023-03-20T01:42:22.166Z,100976.49
2023-03-20T01:44:50.535Z,100976.69
2023-03-20T01:47:20.062Z,100972.10
2023-03-20T01:50:22.782Z,100971.92
2023-03-20T01:53:04.442Z,100973.92
2023-03-20T01:55:33.579Z,100973.86
2023-03-20T01:58:07.972Z,100978.48
2023-03-20T02:00:37.284Z,100979.02
2023-03-20T02:03:08.731Z,100981.23
2023-03-20T02:05:55.641Z,100987.16
2023-03-20T02:08:31.556Z,100989.53
2023-03-20T02:11:02.643Z,100984.70
2023-03-20T02:13:32.490Z,100987.77
2023-03-20T02:16:08.607Z,100991.08
2023-03-20T02:18:52.742Z,100990.20
2023-03-20T02:21:40.804Z,100990.73
2023-03-20T02:24:15.740Z,100989.96
2023-03-20T02:26:54.672Z,100991.98
2023-03-20T02:29:35.973Z,100991.54
2023-03-20T02:32:23.389Z,100990.30
2023-03-20T02:34:55.449Z,100987.94
2023-03-20T02:37:34.179Z,100988.20
2023-03-20T02:40:09.208Z,100988.33
2023-03-20T02:42:42.203Z,100986.09
2023-03-20T02:45:13.566Z,100988.30
2023-03-20T02:48:05.073Z,100987.10
2023-03-20T02:50:38.887Z,100984.56
2023-03-20T02:53:22.932Z,100982.63
2023-03-20T02:55:57.396Z,100983.63
2023-03-20T02:58:30.549Z,100983.42
2023-03-20T03:00:59.951Z,100977.41
2023-03-20T03:03:38.874Z,100971.86
2023-03-20T03:06:10.337Z,100965.16
2023-03-20T03:09:01.735Z,100963.66
2023-03-20T03:11:51.028Z,100962.79
2023-03-20T03:14:54.941Z,100956.33
2023-03-20T03:17:53.639Z,100955.13
2023-03-20T03:23:48.370Z,100946.52
2023-03-20T03:26:21.965Z,100943.41
2023-03-20T03:28:51.368Z,100940.25
2023-03-20T03:31:20.307Z,100944.94
2023-03-20T03:33:50.585Z,100949.19
2023-03-20T03:36:30.952Z,100945.61
2023-03-20T03:39:01.373Z,100946.52
2023-03-20T03:41:38.156Z,100944.64
2023-03-20T03:44:22.188Z,100943.10
2023-03-20T03:47:00.899Z,100945.05
2023-03-20T03:49:31.156Z,100943.54
2023-03-20T03:52:00.967Z,100940.77
2023-03-20T03:54:49.676Z,100941.22
2023-03-20T03:57:43.027Z,100944.61
2023-03-20T04:00:14.342Z,100947.56
2023-03-20T04:02:45.896Z,100946.84
2023-03-20T04:05:17.078Z,100943.98
2023-03-20T04:07:47.675Z,100944.13
2023-03-20T04:10:15.935Z,100944.45
2023-03-20T04:12:55.608Z,100945.03
2023-03-20T04:15:23.981Z,100941.23
2023-03-20T04:17:52.158Z,100940.44
2023-03-20T04:20:20.845Z,100940.52
2023-03-20T04:22:49.419Z,100936.24
2023-03-20T04:25:22.028Z,100942.98
2023-03-20T04:27:52.448Z,100946.87
2023-03-20T04:30:28.606Z,100947.90
2023-03-20T04:33:29.144Z,100948.92
2023-03-20T04:36:08.375Z,100951.64
2023-03-20T04:38:36.759Z,100951.17
2023-03-20T04:41:05.849Z,100945.09
2023-03-20T04:43:35.773Z,100942.58
2023-03-20T04:46:04.571Z,100944.52
2023-03-20T04:48:33.071Z,100945.49
2023-03-20T04:51:02.569Z,100948.72
2023-03-20T04:53:42.108Z,100940.77
2023-03-20T04:56:11.975Z,100943.63
2023-03-20T04:58:41.116Z,100946.04
2023-03-20T05:01:10.560Z,100947.64
2023-03-20T05:03:39.570Z,100947.91
2023-03-20T05:06:08.691Z,100949.86
2023-03-20T05:08:38.078Z,100953.92
2023-03-20T05:11:08.095Z,100947.86
2023-03-20T05:14:15.634Z,100948.08
2023-03-20T05:17:12.899Z,100949.30
2023-03-20T05:20:07.953Z,100943.86
2023-03-20T05:22:59.531Z,100948.39
2023-03-20T05:25:46.643Z,100943.77
2023-03-20T05:28:33.355Z,100936.48
2023-03-20T05:31:12.252Z,100939.05
2023-03-20T05:34:03.305Z,100942.69
2023-03-20T05:36:48.782Z,100941.05
2023-03-20T05:39:33.671Z,100937.58
2023-03-20T05:42:19.952Z,100937.70
2023-03-20T05:45:03.278Z,100935.98
2023-03-20T05:47:56.643Z,100940.23
2023-03-20T05:50:27.282Z,100935.09
2023-03-20T05:53:13.079Z,100934.30
2023-03-20T05:56:11.351Z,100933.44
2023-03-20T05:58:42.601Z,100941.16
2023-03-20T06:01:30.438Z,100944.05
2023-03-20T06:04:18.304Z,100942.16
2023-03-20T06:07:04.808Z,100942.41
2023-03-20T06:09:34.532Z,100941.38
2023-03-20T06:12:07.049Z,100942.12
2023-03-20T06:14:35.395Z,100940.09
2023-03-20T06:17:07.667Z,100933.44
2023-03-20T06:19:37.376Z,100934.06
2023-03-20T06:22:05.672Z,100931.85
2023-03-20T06:24:36.249Z,100938.02
2023-03-20T06:27:04.938Z,100937.35
2023-03-20T06:29:34.185Z,100940.87
2023-03-20T06:32:14.909Z,100944.38
2023-03-20T06:34:43.391Z,100949.86
2023-03-20T06:37:18.048Z,100948.27
2023-03-20T06:39:47.315Z,100942.11
2023-03-20T06:42:16.335Z,100939.08
2023-03-20T06:44:44.998Z,100942.36
2023-03-20T06:47:32.019Z,100941.92
2023-03-20T06:50:01.649Z,100941.70
2023-03-20T06:52:33.241Z,100943.70
2023-03-20T06:55:22.766Z,100941.38
2023-03-20T06:57:50.942Z,100940.01
2023-03-20T07:00:21.835Z,100937.75
2023-03-20T07:02:50.779Z,100933.05
2023-03-20T07:05:21.049Z,100932.54
2023-03-20T07:07:53.127Z,100932.42
2023-03-20T07:10:21.454Z,100932.10
2023-03-20T07:12:52.308Z,100933.23
2023-03-20T07:15:39.170Z,100934.45
2023-03-20T07:18:09.128Z,100932.07
2023-03-20T07:20:42.527Z,100932.19
2023-03-20T07:23:12.072Z,100924.96
2023-03-20T07:25:43.044Z,100926.93
2023-03-20T07:28:15.490Z,100925.30
2023-03-20T07:30:46.917Z,100925.23
2023-03-20T07:33:17.671Z,100925.02
2023-03-20T07:35:46.562Z,100924.12
2023-03-20T07:38:14.920Z,100918.96
2023-03-20T07:40:50.747Z,100913.71
2023-03-20T07:43:19.197Z,100908.71
2023-03-20T07:46:26.804Z,100900.46
2023-03-20T07:48:58.653Z,100900.04
2023-03-20T07:51:26.748Z,100899.52
2023-03-20T07:53:55.311Z,100895.00
2023-03-20T07:56:23.597Z,100890.14
2023-03-20T07:58:52.853Z,100885.40
2023-03-20T08:01:21.350Z,100885.35
2023-03-20T08:03:49.818Z,100880.52
2023-03-20T08:06:29.370Z,100875.61
2023-03-20T08:08:59.150Z,100873.08
2023-03-20T08:11:28.383Z,100871.34
2023-03-20T08:13:56.656Z,100871.35
2023-03-20T08:16:25.567Z,100875.22
2023-03-20T08:18:56.495Z,100878.79
2023-03-20T08:21:24.568Z,100877.69
2023-03-20T08:23:53.023Z,100880.07
2023-03-20T08:26:22.080Z,100881.52
2023-03-20T08:28:51.407Z,100878.83
2023-03-20T08:31:20.413Z,100877.41
2023-03-20T08:33:49.242Z,100875.41
2023-03-20T08:36:19.858Z,100878.79
2023-03-20T08:38:49.948Z,100877.19
2023-03-20T08:41:19.064Z,100878.48
2023-03-20T08:43:48.374Z,100873.81
2023-03-20T08:46:16.667Z,100869.09
2023-03-20T08:48:45.159Z,100871.52
2023-03-20T08:51:14.668Z,100873.45
2023-03-20T08:53:43.162Z,100867.67
2023-03-20T08:56:12.336Z,100864.38
2023-03-20T08:58:40.574Z,100862.14
2023-03-20T09:01:09.432Z,100855.77
2023-03-20T09:03:38.965Z,100850.30
2023-03-20T09:06:07.937Z,100851.70
2023-03-20T09:08:44.708Z,100849.04
2023-03-20T09:11:13.102Z,100848.78
2023-03-20T09:13:41.764Z,100845.41
2023-03-20T09:16:09.966Z,100840.16
2023-03-20T09:18:39.552Z,100834.36
2023-03-20T09:21:08.244Z,100830.06
2023-03-20T09:23:36.618Z,100827.60
2023-03-20T09:26:06.084Z,100824.02
2023-03-20T09:28:35.840Z,100822.75
2023-03-20T09:31:04.354Z,100818.86
2023-03-20T09:33:32.821Z,100813.40
2023-03-20T09:36:01.529Z,100813.58
2023-03-20T09:38:29.776Z,100813.81
2023-03-20T09:40:59.385Z,100809.05
2023-03-20T09:44:02.789Z,100808.63
2023-03-20T09:46:38.365Z,100806.44
2023-03-20T09:49:12.458Z,100807.05
2023-03-20T09:51:45.643Z,100806.19
2023-03-20T09:54:52.670Z,100803.23
2023-03-20T09:57:21.934Z,100801.30
2023-03-20T09:59:51.033Z,100795.66
2023-03-20T10:02:24.697Z,100797.31
2023-03-20T10:04:53.823Z,100789.70
2023-03-20T10:07:22.122Z,100781.82
2023-03-20T10:09:51.926Z,100778.96
2023-03-20T10:12:21.042Z,100780.85
2023-03-20T10:15:08.873Z,100771.23
2023-03-20T10:17:41.080Z,100771.90
2023-03-20T10:20:15.163Z,100767.27
2023-03-20T10:22:50.994Z,100761.89
2023-03-20T10:25:22.955Z,100759.50
2023-03-20T10:27:57.404Z,100755.73
2023-03-20T10:30:31.692Z,100750.55
2023-03-20T10:33:11.243Z,100744.95
2023-03-20T10:35:43.318Z,100748.40
2023-03-20T10:38:20.730Z,100748.55
2023-03-20T10:41:01.972Z,100741.31
2023-03-20T10:43:50.459Z,100736.02
2023-03-20T10:46:29.202Z,100732.29
2023-03-20T10:48:59.101Z,100723.20
2023-03-20T10:51:47.145Z,100724.13
2023-03-20T10:54:27.188Z,100716.41
2023-03-20T10:56:56.486Z,100715.98
2023-03-20T10:59:24.736Z,100704.60
2023-03-20T11:01:53.667Z,100704.38
2023-03-20T11:04:22.499Z,100702.83
2023-03-20T11:06:59.647Z,100704.80
2023-03-20T11:09:30.081Z,100702.45
2023-03-20T11:11:58.881Z,100705.27
2023-03-20T11:14:35.755Z,100702.80
2023-03-20T11:17:04.274Z,100701.85
2023-03-20T11:19:33.875Z,100694.09
2023-03-20T11:22:09.492Z,100689.44
2023-03-20T11:24:41.332Z,100687.38
2023-03-20T11:27:16.367Z,100685.84
2023-03-20T11:29:49.189Z,100681.33
2023-03-20T11:32:17.828Z,100679.03
2023-03-20T11:34:46.200Z,100672.18
2023-03-20T11:37:26.205Z,100670.29
2023-03-20T11:40:01.538Z,100667.86
2023-03-20T11:42:30.882Z,100663.77
2023-03-20T11:45:00.387Z,100660.54
2023-03-20T11:47:36.832Z,100657.58
2023-03-20T11:50:07.376Z,100657.15
2023-03-20T11:52:36.452Z,100653.17
2023-03-20T11:55:07.494Z,100649.38
2023-03-20T11:57:40.797Z,100648.70
2023-03-20T12:00:20.647Z,100639.36
2023-03-20T12:02:49.600Z,100640.73
2023-03-20T12:05:34.205Z,100638.54
2023-03-20T12:08:06.065Z,100639.13
2023-03-20T12:10:39.681Z,100632.43
2023-03-20T12:13:13.418Z,100626.79
2023-03-20T12:15:49.894Z,100621.30
2023-03-20T12:18:37.416Z,100623.14
2023-03-20T12:21:21.221Z,100621.10
2023-03-20T12:23:51.795Z,100616.50
2023-03-20T12:26:57.300Z,100613.66
2023-03-20T12:29:44.933Z,100607.13
2023-03-20T12:32:17.114Z,100604.96
2023-03-20T12:34:53.371Z,100598.58
2023-03-20T12:37:21.962Z,100591.20
2023-03-20T12:39:51.667Z,100586.27
2023-03-20T12:42:22.713Z,100588.60
2023-03-20T12:44:52.838Z,100590.11
2023-03-20T12:47:40.985Z,100586.83
2023-03-20T12:50:28.412Z,100584.04
2023-03-20T12:53:09.800Z,100577.30
2023-03-20T12:55:46.681Z,100574.46
2023-03-20T12:58:24.182Z,100573.92
2023-03-20T13:00:59.822Z,100566.41
2023-03-20T13:03:33.832Z,100566.06
2023-03-20T13:06:08.254Z,100558.81
2023-03-20T13:09:09.878Z,100557.68
2023-03-20T13:11:47.153Z,100552.77
2023-03-20T13:14:28.130Z,100554.19
2023-03-20T13:16:59.753Z,100552.45
2023-03-20T13:19:37.593Z,100549.80
2023-03-20T13:22:24.887Z,100552.65
2023-03-20T13:25:03.080Z,100548.55
2023-03-20T13:28:00.902Z,100545.39
2023-03-20T13:30:44.904Z,100545.32
2023-03-20T13:33:38.313Z,100540.84
2023-03-20T13:36:11.453Z,100535.16
2023-03-20T13:38:52.741Z,100529.64
2023-03-20T13:41:27.773Z,100524.98
2023-03-20T13:44:16.907Z,100528.16
2023-03-20T13:47:07.926Z,100528.88
2023-03-20T13:50:15.040Z,100523.33
2023-03-20T13:53:19.994Z,100523.89
2023-03-20T13:56:12.232Z,100522.66
2023-03-20T13:58:53.334Z,100520.05
2023-03-20T14:01:28.922Z,100518.78
2023-03-20T14:04:36.559Z,100514.73
2023-03-20T14:07:31.477Z,100515.19
2023-03-20T14:10:39.175Z,100518.14
2023-03-20T14:13:29.750Z,100515.04
2023-03-20T14:16:32.876Z,100513.00
2023-03-20T14:19:12.867Z,100509.48
2023-03-20T14:21:53.677Z,100506.45
2023-03-20T14:24:41.718Z,100502.49
2023-03-20T14:27:36.790Z,100508.63
2023-03-20T14:30:31.211Z,100504.30
2023-03-20T14:33:16.901Z,100503.36
2023-03-20T14:36:07.706Z,100498.30
2023-03-20T14:39:02.732Z,100503.58
2023-03-20T14:41:53.911Z,100498.51
2023-03-20T14:44:46.096Z,100501.75
2023-03-20T14:47:28.025Z,100503.75
2023-03-20T14:50:08.568Z,100503.13
2023-03-20T14:53:23.534Z,100499.23
2023-03-20T14:56:27.008Z,100498.63
2023-03-20T14:59:29.921Z,100493.29
2023-03-20T15:02:45.506Z,100494.34
2023-03-20T15:05:37.617Z,100487.16
2023-03-20T15:08:40.363Z,100485.38
2023-03-20T15:11:41.996Z,100485.54
2023-03-20T15:14:34.951Z,100486.44
2023-03-20T15:17:38.339Z,100484.77
2023-03-20T15:20:34.248Z,100484.73
2023-03-20T15:23:33.186Z,100479.14
2023-03-20T15:27:01.989Z,100482.98
2023-03-20T15:29:30.681Z,100480.98
2023-03-20T15:32:13.268Z,100485.23
2023-03-20T15:34:42.989Z,100484.51
2023-03-20T15:37:15.780Z,100493.45
2023-03-20T15:39:48.382Z,100490.68
2023-03-20T15:42:17.668Z,100493.75
2023-03-20T15:44:48.463Z,100499.52
2023-03-20T15:47:21.028Z,100504.08
2023-03-20T15:49:54.069Z,100507.02
2023-03-20T15:52:32.494Z,100510.39
2023-03-20T15:55:03.017Z,100510.30
2023-03-20T15:57:35.349Z,100518.55
2023-03-20T16:00:06.562Z,100522.09
2023-03-20T16:02:35.644Z,100520.83
2023-03-20T16:05:03.862Z,100522.18
2023-03-20T16:07:33.405Z,100524.38
2023-03-20T16:10:03.194Z,100526.91
2023-03-20T16:12:34.301Z,100532.91
2023-03-20T16:15:05.280Z,100532.50
2023-03-20T16:17:33.519Z,100530.55
2023-03-20T16:20:01.890Z,100533.33
2023-03-20T16:22:31.293Z,100536.66
2023-03-20T16:25:00.648Z,100536.34
2023-03-20T16:27:29.805Z,100536.03
2023-03-20T16:29:58.086Z,100540.70
2023-03-20T16:32:35.695Z,100544.17
2023-03-20T16:35:06.299Z,100546.85
2023-03-20T16:37:38.680Z,100550.25
2023-03-20T16:40:16.382Z,100550.67
2023-03-20T16:42:44.750Z,100551.53
2023-03-20T16:45:21.465Z,100548.38
2023-03-20T16:47:49.604Z,100549.34
2023-03-20T16:50:22.343Z,100546.73
2023-03-20T16:52:52.005Z,100551.07
2023-03-20T16:55:42.290Z,100554.48
2023-03-20T16:58:11.399Z,100559.67
2023-03-20T17:00:43.381Z,100559.79
2023-03-20T17:03:12.149Z,100561.19
2023-03-20T17:05:46.271Z,100562.29
2023-03-20T17:08:15.161Z,100553.59
2023-03-20T17:10:44.669Z,100553.02
2023-03-20T17:13:12.941Z,100555.66
2023-03-20T17:16:02.139Z,100558.88
2023-03-20T17:18:31.312Z,100561.39
2023-03-20T17:20:59.586Z,100561.27
2023-03-20T17:23:27.867Z,100563.67
2023-03-20T17:25:56.156Z,100567.09
2023-03-20T17:28:25.171Z,100568.42
2023-03-20T17:30:53.499Z,100571.41
2023-03-20T17:33:23.746Z,100571.80
2023-03-20T17:35:53.935Z,100573.39
2023-03-20T17:38:22.794Z,100576.21
2023-03-20T17:40:51.560Z,100573.12
2023-03-20T17:43:19.844Z,100574.71
2023-03-20T17:45:48.612Z,100578.37
2023-03-20T17:48:18.720Z,100574.88
2023-03-20T17:50:49.212Z,100571.58
2023-03-20T17:53:21.453Z,100565.83
2023-03-20T17:55:50.548Z,100563.87
2023-03-20T17:58:20.682Z,100559.85
2023-03-20T18:00:49.989Z,100558.98
2023-03-20T18:03:18.567Z,100553.66
2023-03-20T18:05:47.757Z,100554.11
2023-03-20T18:08:17.138Z,100555.33
2023-03-20T18:10:48.308Z,100555.08
2023-03-20T18:13:21.064Z,100559.76
2023-03-20T18:15:53.138Z,100558.48
2023-03-20T18:18:23.885Z,100556.00
2023-03-20T18:20:55.242Z,100552.87
2023-03-20T18:23:25.780Z,100553.88
2023-03-20T18:25:53.960Z,100554.69
2023-03-20T18:28:24.790Z,100555.41
2023-03-20T18:30:53.313Z,100556.62
2023-03-20T18:33:28.109Z,100552.01
2023-03-20T18:35:56.723Z,100559.61
2023-03-20T18:38:25.911Z,100560.92
2023-03-20T18:40:56.730Z,100558.63
2023-03-20T18:43:26.346Z,100553.31
2023-03-20T18:45:58.876Z,100547.96
2023-03-20T18:48:46.966Z,100548.25
2023-03-20T18:51:15.962Z,100551.52
2023-03-20T18:53:45.162Z,100549.97
2023-03-20T18:56:15.290Z,100555.12
2023-03-20T18:58:50.426Z,100554.92
2023-03-20T19:01:20.507Z,100550.09
2023-03-20T19:03:49.164Z,100551.38
2023-03-20T19:06:18.430Z,100547.88
2023-03-20T19:08:47.071Z,100546.07
2023-03-20T19:11:18.924Z,100551.16
2023-03-20T19:13:51.499Z,100550.45
2023-03-20T19:16:20.958Z,100546.60
2023-03-20T19:18:52.736Z,100539.92
2023-03-20T19:21:26.561Z,100540.86
2023-03-20T19:23:59.031Z,100537.91
2023-03-20T19:26:27.926Z,100537.65
2023-03-20T19:28:56.474Z,100537.30
2023-03-20T19:31:25.555Z,100537.61
2023-03-20T19:33:54.738Z,100534.89
2023-03-20T19:36:31.182Z,100533.60
2023-03-20T19:39:00.402Z,100532.82
2023-03-20T19:41:28.968Z,100540.36
2023-03-20T19:43:57.215Z,100540.02
2023-03-20T19:46:39.728Z,100535.09
2023-03-20T19:49:19.202Z,100534.15
2023-03-20T19:51:48.250Z,100535.38
2023-03-20T19:54:16.562Z,100532.36
2023-03-20T19:56:46.065Z,100530.05
2023-03-20T19:59:17.031Z,100535.77
2023-03-20T20:01:46.222Z,100533.75
2023-03-20T20:04:16.195Z,100533.90
2023-03-20T20:06:47.193Z,100532.19
2023-03-20T20:09:16.589Z,100532.77
2023-03-20T20:11:44.931Z,100533.14
2023-03-20T20:14:14.892Z,100531.96
2023-03-20T20:16:45.835Z,100529.39
2023-03-20T20:19:21.765Z,100526.76
2023-03-20T20:24:38.494Z,100526.02
2023-03-20T20:27:17.549Z,100525.27
2023-03-20T20:29:49.447Z,100522.60
2023-03-20T20:32:23.613Z,100521.23
2023-03-20T20:40:30.969Z,100511.55
2023-03-20T20:43:01.781Z,100511.77
2023-03-20T20:45:43.764Z,100512.41
2023-03-20T20:48:12.875Z,100509.44
2023-03-20T20:50:42.180Z,100507.17
2023-03-20T20:53:11.175Z,100507.20
2023-03-20T20:55:39.853Z,100509.10
2023-03-20T20:58:10.536Z,100514.56
2023-03-20T21:00:50.678Z,100511.20
2023-03-20T21:03:21.593Z,100508.13
2023-03-20T21:05:50.182Z,100510.39
2023-03-20T21:08:19.216Z,100511.48
2023-03-20T21:10:55.604Z,100511.80
2023-03-20T21:13:24.109Z,100507.73
2023-03-20T21:15:59.729Z,100503.46
2023-03-20T21:18:29.185Z,100500.58
2023-03-20T21:21:08.015Z,100497.84
2023-03-20T21:23:36.394Z,100497.80
2023-03-20T21:26:06.821Z,100496.06
2023-03-20T21:28:36.968Z,100491.60
2023-03-20T21:31:24.086Z,100494.91
2023-03-20T21:33:54.494Z,100491.92
2023-03-20T21:36:23.398Z,100491.55
2023-03-20T21:39:09.048Z,100487.77
2023-03-20T21:41:38.375Z,100484.58
2023-03-20T21:44:07.600Z,100483.50
2023-03-20T21:52:54.661Z,100486.16
2023-03-20T21:55:48.247Z,100480.92
2023-03-20T22:04:10.581Z,100479.14
2023-03-20T22:12:52.837Z,100478.01
2023-03-20T22:18:12.214Z,100471.88
2023-03-20T22:46:16.916Z,100448.78
2023-03-20T22:48:51.596Z,100446.02
2023-03-20T22:51:22.670Z,100443.20
2023-03-20T22:53:58.903Z,100445.10
2023-03-20T22:56:27.184Z,100445.04
2023-03-20T22:58:55.767Z,100443.80
2023-03-20T23:01:23.969Z,100443.00
2023-03-20T23:03:52.760Z,100441.19
2023-03-20T23:06:21.936Z,100441.46
2023-03-20T23:08:55.431Z,100440.68
2023-03-20T23:11:25.882Z,100439.79
2023-03-20T23:14:01.630Z,100435.69
2023-03-20T23:16:31.566Z,100431.88
2023-03-20T23:18:59.829Z,100434.30
2023-03-20T23:21:47.971Z,100434.54
2023-03-20T23:24:35.473Z,100432.68
2023-03-20T23:27:10.015Z,100429.40
2023-03-20T23:30:03.330Z,100424.42
2023-03-20T23:32:54.135Z,100424.77
2023-03-20T23:36:01.200Z,100421.91
2023-03-20T23:39:10.827Z,100417.16
2023-03-20T23:42:07.809Z,100420.33
2023-03-20T23:44:56.518Z,100420.89
2023-03-20T23:47:44.561Z,100423.92
2023-03-20T23:50:26.350Z,100419.84
2023-03-20T23:53:09.833Z,100415.22
2023-03-20T23:55:46.194Z,100418.07
2023-03-20T23:58:17.034Z,100419.72
